sensor_id;sensor_type;location;lat;lon;timestamp;pressure;altitude;pressure_sealevel;temperature;humidity
74573;BME280;63071;51.526;-0.134;2023-01-20T00:00:24;100851.28;;;24.31;26.79
74573;BME280;63071;51.526;-0.134;2023-01-20T00:02:50;100841.00;;;24.29;26.75
74573;BME280;63071;51.526;-0.134;2023-01-20T00:05:15;100849.00;;;24.29;26.99
74573;BME280;63071;51.526;-0.134;2023-01-20T00:07:41;100848.63;;;24.27;26.65
74573;BME280;63071;51.526;-0.134;2023-01-20T00:10:07;100848.22;;;24.25;26.64
74573;BME280;63071;51.526;-0.134;2023-01-20T00:12:33;100848.97;;;24.26;26.68
74573;BME280;63071;51.526;-0.134;2023-01-20T00:14:58;100850.88;;;24.25;26.48
74573;BME280;63071;51.526;-0.134;2023-01-20T00:17:23;100842.50;;;24.23;26.57
74573;BME280;63071;51.526;-0.134;2023-01-20T00:19:49;100852.38;;;24.23;26.97
74573;BME280;63071;51.526;-0.134;2023-01-20T00:22:14;100847.84;;;24.23;26.88
74573;BME280;63071;51.526;-0.134;2023-01-20T00:24:40;100864.22;;;24.22;26.68
74573;BME280;63071;51.526;-0.134;2023-01-20T00:27:05;100860.78;;;24.21;26.84
74573;BME280;63071;51.526;-0.134;2023-01-20T00:29:32;100867.69;;;24.33;26.54
74573;BME280;63071;51.526;-0.134;2023-01-20T00:31:57;100866.53;;;24.23;26.46
74573;BME280;63071;51.526;-0.134;2023-01-20T00:34:23;100862.69;;;24.20;26.36
74573;BME280;63071;51.526;-0.134;2023-01-20T00:36:48;100859.25;;;24.20;26.60
74573;BME280;63071;51.526;-0.134;2023-01-20T00:39:14;100860.41;;;24.19;26.84
74573;BME280;63071;51.526;-0.134;2023-01-20T00:41:39;100855.44;;;24.17;26.65
74573;BME280;63071;51.526;-0.134;2023-01-20T00:44:04;100864.56;;;24.16;26.69
74573;BME280;63071;51.526;-0.134;2023-01-20T00:46:30;100860.38;;;24.15;26.68
74573;BME280;63071;51.526;-0.134;2023-01-20T00:48:55;100864.16;;;24.14;26.50
74573;BME280;63071;51.526;-0.134;2023-01-20T00:51:21;100865.31;;;24.13;26.74
74573;BME280;63071;51.526;-0.134;2023-01-20T00:53:46;100870.66;;;24.13;26.66
74573;BME280;63071;51.526;-0.134;2023-01-20T00:56:12;100866.44;;;24.12;26.80
74573;BME280;63071;51.526;-0.134;2023-01-20T00:58:38;100874.09;;;24.14;26.85
74573;BME280;63071;51.526;-0.134;2023-01-20T01:01:03;100880.59;;;24.13;26.85
74573;BME280;63071;51.526;-0.134;2023-01-20T01:03:29;100880.59;;;24.13;26.89
74573;BME280;63071;51.526;-0.134;2023-01-20T01:06:04;100889.72;;;24.12;26.47
74573;BME280;63071;51.526;-0.134;2023-01-20T01:08:30;100889.72;;;24.12;26.79
74573;BME280;63071;51.526;-0.134;2023-01-20T01:10:56;100892.03;;;24.13;26.61
74573;BME280;63071;51.526;-0.134;2023-01-20T01:13:21;100895.06;;;24.12;26.45
74573;BME280;63071;51.526;-0.134;2023-01-20T01:15:48;100896.97;;;24.11;26.64
74573;BME280;63071;51.526;-0.134;2023-01-20T01:18:14;100899.25;;;24.09;26.24
74573;BME280;63071;51.526;-0.134;2023-01-20T01:20:39;100893.16;;;24.09;26.63
74573;BME280;63071;51.526;-0.134;2023-01-20T01:23:05;100899.25;;;24.09;26.64
74573;BME280;63071;51.526;-0.134;2023-01-20T01:25:30;100900.00;;;24.10;26.62
74573;BME280;63071;51.526;-0.134;2023-01-20T01:27:55;100905.72;;;24.08;26.41
74573;BME280;63071;51.526;-0.134;2023-01-20T01:30:21;100902.28;;;24.08;26.38
74573;BME280;63071;51.526;-0.134;2023-01-20T01:32:46;100907.63;;;24.08;26.49
74573;BME280;63071;51.526;-0.134;2023-01-20T01:35:12;100909.53;;;24.07;26.55
74573;BME280;63071;51.526;-0.134;2023-01-20T01:37:37;100913.31;;;24.06;26.48
74573;BME280;63071;51.526;-0.134;2023-01-20T01:40:03;100921.34;;;24.06;26.29
74573;BME280;63071;51.526;-0.134;2023-01-20T01:42:29;100920.22;;;24.07;26.42
74573;BME280;63071;51.526;-0.134;2023-01-20T01:45:19;100919.03;;;24.05;26.27
74573;BME280;63071;51.526;-0.134;2023-01-20T01:48:02;100922.50;;;24.05;26.42
74573;BME280;63071;51.526;-0.134;2023-01-20T01:53:01;100930.88;;;24.04;26.55
74573;BME280;63071;51.526;-0.134;2023-01-20T01:55:31;100936.97;;;24.04;26.57
74573;BME280;63071;51.526;-0.134;2023-01-20T01:58:00;100933.53;;;24.04;26.29
74573;BME280;63071;51.526;-0.134;2023-01-20T02:00:27;100932.00;;;24.03;26.30
74573;BME280;63071;51.526;-0.134;2023-01-20T02:02:54;100938.88;;;24.04;26.26
74573;BME280;63071;51.526;-0.134;2023-01-20T02:05:23;100945.34;;;24.03;26.54
74573;BME280;63071;51.526;-0.134;2023-01-20T02:07:51;100945.72;;;24.01;26.24
74573;BME280;63071;51.526;-0.134;2023-01-20T02:10:16;100949.16;;;24.02;26.59
74573;BME280;63071;51.526;-0.134;2023-01-20T02:12:45;100957.53;;;24.00;26.48
74573;BME280;63071;51.526;-0.134;2023-01-20T02:15:15;100958.28;;;24.00;26.48
74573;BME280;63071;51.526;-0.134;2023-01-20T02:18:00;100962.50;;;24.02;26.58
74573;BME280;63071;51.526;-0.134;2023-01-20T02:29:41;100967.44;;;23.99;26.37
74573;BME280;63071;51.526;-0.134;2023-01-20T02:35:02;100962.13;;;23.99;26.18
74573;BME280;63071;51.526;-0.134;2023-01-20T02:37:46;100960.97;;;23.97;26.28
74573;BME280;63071;51.526;-0.134;2023-01-20T02:40:39;100960.56;;;23.95;26.14
74573;BME280;63071;51.526;-0.134;2023-01-20T02:43:23;100980.78;;;23.96;26.30
74573;BME280;63071;51.526;-0.134;2023-01-20T02:48:33;100975.78;;;23.94;26.05
74573;BME280;63071;51.526;-0.134;2023-01-20T02:51:08;100990.28;;;23.93;26.07
74573;BME280;63071;51.526;-0.134;2023-01-20T02:53:55;100999.06;;;23.94;25.89
74573;BME280;63071;51.526;-0.134;2023-01-20T02:56:27;100992.19;;;23.93;26.11
74573;BME280;63071;51.526;-0.134;2023-01-20T02:58:58;100996.38;;;23.94;26.33
74573;BME280;63071;51.526;-0.134;2023-01-20T03:01:47;100992.97;;;23.93;26.23
74573;BME280;63071;51.526;-0.134;2023-01-20T03:04:20;101002.88;;;23.93;26.34
74573;BME280;63071;51.526;-0.134;2023-01-20T03:06:53;101002.47;;;23.91;26.28
74573;BME280;63071;51.526;-0.134;2023-01-20T03:09:25;101008.56;;;23.91;26.14
74573;BME280;63071;51.526;-0.134;2023-01-20T03:11:58;101001.28;;;23.88;26.16
74573;BME280;63071;51.526;-0.134;2023-01-20T03:14:25;101002.09;;;23.92;25.93
74573;BME280;63071;51.526;-0.134;2023-01-20T03:16:51;101002.88;;;23.93;26.22
74573;BME280;63071;51.526;-0.134;2023-01-20T03:19:18;101004.75;;;23.92;25.95
74573;BME280;63071;51.526;-0.134;2023-01-20T03:21:44;101009.34;;;23.92;25.95
74573;BME280;63071;51.526;-0.134;2023-01-20T03:24:10;101002.09;;;23.92;26.07
74573;BME280;63071;51.526;-0.134;2023-01-20T03:26:37;101012.75;;;23.92;26.01
74573;BME280;63071;51.526;-0.134;2023-01-20T03:29:08;101001.69;;;23.90;26.00
74573;BME280;63071;51.526;-0.134;2023-01-20T03:31:39;101007.81;;;23.91;26.09
74573;BME280;63071;51.526;-0.134;2023-01-20T03:34:09;101004.34;;;23.90;25.92
74573;BME280;63071;51.526;-0.134;2023-01-20T03:36:39;101002.06;;;23.89;25.96
74573;BME280;63071;51.526;-0.134;2023-01-20T03:39:05;101013.50;;;23.89;25.93
74573;BME280;63071;51.526;-0.134;2023-01-20T03:44:14;101032.97;;;23.90;26.35
74573;BME280;63071;51.526;-0.134;2023-01-20T03:46:52;101027.97;;;23.88;26.00
74573;BME280;63071;51.526;-0.134;2023-01-20T03:49:50;101033.72;;;23.87;25.94
74573;BME280;63071;51.526;-0.134;2023-01-20T03:55:23;101039.81;;;23.87;25.89
74573;BME280;63071;51.526;-0.134;2023-01-20T04:00:31;101040.16;;;23.86;26.28
74573;BME280;63071;51.526;-0.134;2023-01-20T04:03:02;101044.38;;;23.87;26.01
74573;BME280;63071;51.526;-0.134;2023-01-20T04:05:29;101048.94;;;23.86;26.20
74573;BME280;63071;51.526;-0.134;2023-01-20T04:07:58;101049.31;;;23.85;25.96
74573;BME280;63071;51.526;-0.134;2023-01-20T04:10:30;101045.09;;;23.84;26.22
74573;BME280;63071;51.526;-0.134;2023-01-20T04:12:57;101047.78;;;23.84;25.77
74573;BME280;63071;51.526;-0.134;2023-01-20T04:15:25;101055.03;;;23.83;25.98
74573;BME280;63071;51.526;-0.134;2023-01-20T04:17:51;101053.13;;;23.84;26.02
74573;BME280;63071;51.526;-0.134;2023-01-20T04:20:18;101053.88;;;23.84;26.01
74573;BME280;63071;51.526;-0.134;2023-01-20T04:22:51;101055.38;;;23.82;25.90
74573;BME280;63071;51.526;-0.134;2023-01-20T04:25:28;101063.41;;;23.82;25.95
74573;BME280;63071;51.526;-0.134;2023-01-20T04:27:54;101065.69;;;23.83;26.05
74573;BME280;63071;51.526;-0.134;2023-01-20T04:30:20;101071.03;;;23.83;25.91
74573;BME280;63071;51.526;-0.134;2023-01-20T04:32:45;101067.63;;;23.86;25.81
74573;BME280;63071;51.526;-0.134;2023-01-20T04:35:13;101074.88;;;23.86;25.92
74573;BME280;63071;51.526;-0.134;2023-01-20T04:37:39;101071.81;;;23.84;25.98
74573;BME280;63071;51.526;-0.134;2023-01-20T04:40:04;101072.94;;;23.83;25.98
74573;BME280;63071;51.526;-0.134;2023-01-20T04:42:30;101069.09;;;23.80;25.92
74573;BME280;63071;51.526;-0.134;2023-01-20T04:44:56;101072.16;;;23.82;25.74
74573;BME280;63071;51.526;-0.134;2023-01-20T04:47:21;101071.41;;;23.82;25.86
74573;BME280;63071;51.526;-0.134;2023-01-20T04:49:46;101070.28;;;23.83;25.84
74573;BME280;63071;51.526;-0.134;2023-01-20T04:52:12;101075.22;;;23.81;25.59
74573;BME280;63071;51.526;-0.134;2023-01-20T04:54:37;101075.22;;;23.81;25.86
74573;BME280;63071;51.526;-0.134;2023-01-20T04:57:03;101073.66;;;23.79;25.82
74573;BME280;63071;51.526;-0.134;2023-01-20T04:59:28;101084.34;;;23.79;25.97
74573;BME280;63071;51.526;-0.134;2023-01-20T05:01:54;101082.44;;;23.80;25.98
74573;BME280;63071;51.526;-0.134;2023-01-20T05:04:19;101087.00;;;23.79;25.87
74573;BME280;63071;51.526;-0.134;2023-01-20T05:06:45;101090.84;;;23.78;25.68
74573;BME280;63071;51.526;-0.134;2023-01-20T05:09:14;101081.28;;;23.77;25.73
74573;BME280;63071;51.526;-0.134;2023-01-20T05:11:41;101090.41;;;23.76;25.83
74573;BME280;63071;51.526;-0.134;2023-01-20T05:14:06;101095.72;;;23.76;25.86
74573;BME280;63071;51.526;-0.134;2023-01-20T05:16:32;101095.72;;;23.76;25.88
74573;BME280;63071;51.526;-0.134;2023-01-20T05:18:59;101095.72;;;23.76;25.82
74573;BME280;63071;51.526;-0.134;2023-01-20T05:21:24;101101.88;;;23.77;25.75
74573;BME280;63071;51.526;-0.134;2023-01-20T05:23:52;101096.84;;;23.75;25.86
74573;BME280;63071;51.526;-0.134;2023-01-20T05:26:19;101098.41;;;23.76;25.73
74573;BME280;63071;51.526;-0.134;2023-01-20T05:28:45;101107.53;;;23.75;25.66
74573;BME280;63071;51.526;-0.134;2023-01-20T05:31:10;101104.09;;;23.75;26.06
74573;BME280;63071;51.526;-0.134;2023-01-20T05:33:36;101107.13;;;23.73;25.69
74573;BME280;63071;51.526;-0.134;2023-01-20T05:36:05;101106.00;;;23.74;25.63
74573;BME280;63071;51.526;-0.134;2023-01-20T05:38:30;101100.25;;;23.72;26.02
74573;BME280;63071;51.526;-0.134;2023-01-20T05:41:00;101104.47;;;23.73;25.54
74573;BME280;63071;51.526;-0.134;2023-01-20T05:43:26;101110.56;;;23.74;25.57
74573;BME280;63071;51.526;-0.134;2023-01-20T05:45:52;101108.69;;;23.74;25.79
74573;BME280;63071;51.526;-0.134;2023-01-20T05:48:17;101117.81;;;23.73;25.77
74573;BME280;63071;51.526;-0.134;2023-01-20T05:50:43;101112.47;;;23.73;25.71
74573;BME280;63071;51.526;-0.134;2023-01-20T05:53:08;101114.41;;;23.76;25.65
74573;BME280;63071;51.526;-0.134;2023-01-20T05:55:34;101114.78;;;23.75;25.65
74573;BME280;63071;51.526;-0.134;2023-01-20T05:58:03;101127.75;;;23.76;25.75
74573;BME280;63071;51.526;-0.134;2023-01-20T06:00:29;101128.88;;;23.75;25.66
74573;BME280;63071;51.526;-0.134;2023-01-20T06:02:55;101128.88;;;23.75;25.64
74573;BME280;63071;51.526;-0.134;2023-01-20T06:05:21;101133.09;;;23.76;25.42
74573;BME280;63071;51.526;-0.134;2023-01-20T06:07:46;101129.31;;;23.77;25.61
74573;BME280;63071;51.526;-0.134;2023-01-20T06:10:14;101135.41;;;23.78;25.69
74573;BME280;63071;51.526;-0.134;2023-01-20T06:12:40;101131.97;;;23.77;25.41
74573;BME280;63071;51.526;-0.134;2023-01-20T06:15:06;101131.63;;;23.79;25.41
74573;BME280;63071;51.526;-0.134;2023-01-20T06:17:32;101139.28;;;23.81;25.38
74573;BME280;63071;51.526;-0.134;2023-01-20T06:19:57;101136.97;;;23.79;25.45
74573;BME280;63071;51.526;-0.134;2023-01-20T06:22:24;101142.72;;;23.81;25.52
74573;BME280;63071;51.526;-0.134;2023-01-20T06:24:50;101140.81;;;23.82;25.38
74573;BME280;63071;51.526;-0.134;2023-01-20T06:27:17;101142.34;;;23.83;25.35
74573;BME280;63071;51.526;-0.134;2023-01-20T06:29:42;101157.22;;;23.84;25.47
74573;BME280;63071;51.526;-0.134;2023-01-20T06:32:08;101150.47;;;23.93;25.27
74573;BME280;63071;51.526;-0.134;2023-01-20T06:34:33;101156.13;;;23.88;25.31
74573;BME280;63071;51.526;-0.134;2023-01-20T06:36:59;101153.03;;;23.86;25.36
74573;BME280;63071;51.526;-0.134;2023-01-20T06:39:26;101153.44;;;23.85;25.26
74573;BME280;63071;51.526;-0.134;2023-01-20T06:41:51;101163.31;;;23.84;25.49
74573;BME280;63071;51.526;-0.134;2023-01-20T06:44:17;101147.31;;;23.84;25.31
74573;BME280;63071;51.526;-0.134;2023-01-20T06:46:42;101156.47;;;23.83;25.45
74573;BME280;63071;51.526;-0.134;2023-01-20T06:49:08;101159.88;;;23.84;25.35
74573;BME280;63071;51.526;-0.134;2023-01-20T06:51:33;101162.56;;;23.84;25.33
74573;BME280;63071;51.526;-0.134;2023-01-20T06:53:59;101162.16;;;23.82;25.24
74573;BME280;63071;51.526;-0.134;2023-01-20T06:56:24;101166.38;;;23.83;25.56
74573;BME280;63071;51.526;-0.134;2023-01-20T06:58:50;101169.81;;;23.83;25.33
74573;BME280;63071;51.526;-0.134;2023-01-20T07:01:25;101171.72;;;23.83;25.25
74573;BME280;63071;51.526;-0.134;2023-01-20T07:03:52;101174.00;;;23.84;27.24
74573;BME280;63071;51.526;-0.134;2023-01-20T07:08:49;101181.59;;;23.82;26.03
74573;BME280;63071;51.526;-0.134;2023-01-20T07:11:15;101186.19;;;23.82;25.73
74573;BME280;63071;51.526;-0.134;2023-01-20T07:13:41;101180.03;;;23.77;25.72
74573;BME280;63071;51.526;-0.134;2023-01-20T07:16:08;101183.47;;;23.78;25.84
74573;BME280;63071;51.526;-0.134;2023-01-20T07:18:33;101181.94;;;23.77;25.61
74573;BME280;63071;51.526;-0.134;2023-01-20T07:20:59;101181.50;;;23.75;25.62
74573;BME280;63071;51.526;-0.134;2023-01-20T07:23:25;101191.03;;;23.76;25.76
74573;BME280;63071;51.526;-0.134;2023-01-20T07:28:23;101212.75;;;23.74;25.55
74573;BME280;63071;51.526;-0.134;2023-01-20T07:30:48;101215.84;;;23.76;25.96
74573;BME280;63071;51.526;-0.134;2023-01-20T07:33:14;101208.63;;;23.77;26.04
74573;BME280;63071;51.526;-0.134;2023-01-20T07:35:39;101205.97;;;23.77;26.15
74573;BME280;63071;51.526;-0.134;2023-01-20T07:38:04;101212.06;;;23.77;26.07
74573;BME280;63071;51.526;-0.134;2023-01-20T07:40:30;101212.81;;;23.78;26.00
74573;BME280;63071;51.526;-0.134;2023-01-20T07:42:55;101220.47;;;23.79;25.87
74573;BME280;63071;51.526;-0.134;2023-01-20T07:45:21;101216.69;;;23.81;25.91
74573;BME280;63071;51.526;-0.134;2023-01-20T07:47:46;101218.97;;;23.82;25.99
74573;BME280;63071;51.526;-0.134;2023-01-20T07:50:12;101224.72;;;23.84;26.08
74573;BME280;63071;51.526;-0.134;2023-01-20T07:52:37;101230.84;;;23.85;26.03
74573;BME280;63071;51.526;-0.134;2023-01-20T07:55:03;101232.72;;;23.84;26.14
74573;BME280;63071;51.526;-0.134;2023-01-20T07:57:29;101226.25;;;23.85;25.98
74573;BME280;63071;51.526;-0.134;2023-01-20T07:59:55;101235.81;;;23.86;26.03
74573;BME280;63071;51.526;-0.134;2023-01-20T08:02:20;101238.47;;;23.86;25.64
74573;BME280;63071;51.526;-0.134;2023-01-20T08:04:45;101244.59;;;23.87;25.78
74573;BME280;63071;51.526;-0.134;2023-01-20T08:07:11;101246.88;;;23.88;26.02
74573;BME280;63071;51.526;-0.134;2023-01-20T08:09:36;101254.91;;;23.88;25.64
74573;BME280;63071;51.526;-0.134;2023-01-20T08:12:02;101259.88;;;23.90;25.88
74573;BME280;63071;51.526;-0.134;2023-01-20T08:14:27;101265.22;;;23.90;25.56
74573;BME280;63071;51.526;-0.134;2023-01-20T08:16:53;101262.53;;;23.90;25.62
74573;BME280;63071;51.526;-0.134;2023-01-20T08:19:18;101273.63;;;23.92;25.78
74573;BME280;63071;51.526;-0.134;2023-01-20T08:21:44;101277.06;;;23.92;25.44
74573;BME280;63071;51.526;-0.134;2023-01-20T08:24:09;101281.66;;;23.92;25.56
74573;BME280;63071;51.526;-0.134;2023-01-20T08:26:35;101282.81;;;23.94;25.81
74573;BME280;63071;51.526;-0.134;2023-01-20T08:29:07;101283.97;;;23.93;25.57
74573;BME280;63071;51.526;-0.134;2023-01-20T08:31:32;101288.16;;;23.94;25.55
74573;BME280;63071;51.526;-0.134;2023-01-20T08:33:58;101292.03;;;24.00;25.54
74573;BME280;63071;51.526;-0.134;2023-01-20T08:36:27;101281.34;;;23.97;25.58
74573;BME280;63071;51.526;-0.134;2023-01-20T08:38:58;101290.47;;;23.96;25.38
74573;BME280;63071;51.526;-0.134;2023-01-20T08:41:33;101292.38;;;23.95;25.08
74573;BME280;63071;51.526;-0.134;2023-01-20T08:44:01;101304.22;;;23.98;25.42
74573;BME280;63071;51.526;-0.134;2023-01-20T08:46:27;101303.09;;;23.99;25.35
74573;BME280;63071;51.526;-0.134;2023-01-20T08:48:52;101311.13;;;23.99;25.34
74573;BME280;63071;51.526;-0.134;2023-01-20T08:51:28;101301.97;;;24.00;25.41
74573;BME280;63071;51.526;-0.134;2023-01-20T08:53:54;101312.28;;;24.02;25.41
74573;BME280;63071;51.526;-0.134;2023-01-20T08:56:20;101312.28;;;24.02;25.30
74573;BME280;63071;51.526;-0.134;2023-01-20T08:58:46;101317.63;;;24.02;25.26
74573;BME280;63071;51.526;-0.134;2023-01-20T09:01:18;101319.16;;;24.03;25.09
74573;BME280;63071;51.526;-0.134;2023-01-20T09:03:45;101319.16;;;24.03;25.29
74573;BME280;63071;51.526;-0.134;2023-01-20T09:06:11;101316.47;;;24.03;25.07
74573;BME280;63071;51.526;-0.134;2023-01-20T09:08:37;101316.88;;;24.05;24.95
74573;BME280;63071;51.526;-0.134;2023-01-20T09:11:09;101323.03;;;24.05;25.21
74573;BME280;63071;51.526;-0.134;2023-01-20T09:13:35;101310.44;;;24.06;24.91
74573;BME280;63071;51.526;-0.134;2023-01-20T09:16:01;101327.22;;;24.06;24.93
74573;BME280;63071;51.526;-0.134;2023-01-20T09:18:29;101318.84;;;24.08;24.92
74573;BME280;63071;51.526;-0.134;2023-01-20T09:20:59;101322.28;;;24.08;25.15
74573;BME280;63071;51.526;-0.134;2023-01-20T09:23:25;101325.75;;;24.09;25.22
74573;BME280;63071;51.526;-0.134;2023-01-20T09:25:51;101322.69;;;24.10;25.06
74573;BME280;63071;51.526;-0.134;2023-01-20T09:28:16;101325.75;;;24.09;25.27
74573;BME280;63071;51.526;-0.134;2023-01-20T09:30:42;101331.84;;;24.09;25.38
74573;BME280;63071;51.526;-0.134;2023-01-20T09:33:12;101337.19;;;24.09;25.13
74573;BME280;63071;51.526;-0.134;2023-01-20T09:35:38;101343.66;;;24.08;25.15
74573;BME280;63071;51.526;-0.134;2023-01-20T09:38:05;101345.19;;;24.09;25.04
74573;BME280;63071;51.526;-0.134;2023-01-20T09:53:05;101366.25;;;24.14;25.06
74573;BME280;63071;51.526;-0.134;2023-01-20T10:09:30;101395.31;;;24.19;25.05
74573;BME280;63071;51.526;-0.134;2023-01-20T10:12:08;101390.75;;;24.20;24.94
74573;BME280;63071;51.526;-0.134;2023-01-20T10:14:43;101402.19;;;24.20;24.87
74573;BME280;63071;51.526;-0.134;2023-01-20T10:17:20;101407.19;;;24.22;25.41
74573;BME280;63071;51.526;-0.134;2023-01-20T10:20:00;101405.28;;;24.23;25.15
74573;BME280;63071;51.526;-0.134;2023-01-20T10:22:31;101412.94;;;24.24;25.26
74573;BME280;63071;51.526;-0.134;2023-01-20T10:25:05;101421.72;;;24.25;25.21
74573;BME280;63071;51.526;-0.134;2023-01-20T10:27:38;101414.47;;;24.25;25.07
74573;BME280;63071;51.526;-0.134;2023-01-20T10:30:12;101420.59;;;24.26;25.24
74573;BME280;63071;51.526;-0.134;2023-01-20T10:35:24;101430.25;;;24.34;25.47
74573;BME280;63071;51.526;-0.134;2023-01-20T10:37:53;101430.94;;;24.31;25.09
74573;BME280;63071;51.526;-0.134;2023-01-20T10:43:05;101442.03;;;24.33;25.44
74573;BME280;63071;51.526;-0.134;2023-01-20T10:57:12;101447.78;;;24.35;25.02
74573;BME280;63071;51.526;-0.134;2023-01-20T10:59:52;101445.13;;;24.35;25.58
74573;BME280;63071;51.526;-0.134;2023-01-20T11:02:23;101446.69;;;24.36;25.20
74573;BME280;63071;51.526;-0.134;2023-01-20T11:05:02;101439.44;;;24.36;25.01
74573;BME280;63071;51.526;-0.134;2023-01-20T11:07:34;101451.28;;;24.39;24.81
74573;BME280;63071;51.526;-0.134;2023-01-20T11:10:23;101456.63;;;24.39;25.27
74573;BME280;63071;51.526;-0.134;2023-01-20T11:13:00;101456.28;;;24.40;25.33
74573;BME280;63071;51.526;-0.134;2023-01-20T11:15:32;101447.16;;;24.42;25.46
74573;BME280;63071;51.526;-0.134;2023-01-20T11:28:53;101440.72;;;24.46;25.30
74573;BME280;63071;51.526;-0.134;2023-01-20T11:31:20;101448.38;;;24.48;25.88
74573;BME280;63071;51.526;-0.134;2023-01-20T11:33:55;101444.56;;;24.49;25.53
74573;BME280;63071;51.526;-0.134;2023-01-20T11:36:21;101441.25;;;24.55;25.95
74573;BME280;63071;51.526;-0.134;2023-01-20T11:38:50;101447.00;;;24.57;25.88
74573;BME280;63071;51.526;-0.134;2023-01-20T11:41:27;101441.66;;;24.57;26.25
74573;BME280;63071;51.526;-0.134;2023-01-20T11:43:58;101445.84;;;24.58;25.88
74573;BME280;63071;51.526;-0.134;2023-01-20T11:49:20;101456.97;;;24.61;25.94
74573;BME280;63071;51.526;-0.134;2023-01-20T11:51:54;101454.34;;;24.64;26.16
74573;BME280;63071;51.526;-0.134;2023-01-20T11:54:21;101459.41;;;24.73;25.84
74573;BME280;63071;51.526;-0.134;2023-01-20T11:56:51;101458.69;;;24.76;26.29
74573;BME280;63071;51.526;-0.134;2023-01-20T11:59:30;101453.75;;;24.78;25.98
74573;BME280;63071;51.526;-0.134;2023-01-20T12:07:50;101454.16;;;24.80;26.52
74573;BME280;63071;51.526;-0.134;2023-01-20T12:13:02;101457.22;;;24.82;26.30
74573;BME280;63071;51.526;-0.134;2023-01-20T12:15:41;101463.75;;;24.85;26.96
74573;BME280;63071;51.526;-0.134;2023-01-20T12:18:22;101469.47;;;24.83;26.50
74573;BME280;63071;51.526;-0.134;2023-01-20T12:21:04;101460.66;;;24.83;26.88
74573;BME280;63071;51.526;-0.134;2023-01-20T12:23:55;101457.59;;;24.81;26.81
74573;BME280;63071;51.526;-0.134;2023-01-20T12:26:25;101460.34;;;24.88;26.56
74573;BME280;63071;51.526;-0.134;2023-01-20T12:29:26;101459.97;;;24.89;26.22
74573;BME280;63071;51.526;-0.134;2023-01-20T12:31:54;101452.75;;;24.93;26.44
74573;BME280;63071;51.526;-0.134;2023-01-20T12:34:26;101443.72;;;25.05;26.41
74573;BME280;63071;51.526;-0.134;2023-01-20T12:36:56;101442.16;;;25.01;26.36
74573;BME280;63071;51.526;-0.134;2023-01-20T12:39:51;101450.13;;;24.97;26.95
74573;BME280;63071;51.526;-0.134;2023-01-20T13:01:49;101458.72;;;25.13;26.36
74573;BME280;63071;51.526;-0.134;2023-01-20T13:04:40;101459.88;;;25.16;26.78
74573;BME280;63071;51.526;-0.134;2023-01-20T13:07:41;101457.59;;;25.14;26.37
74573;BME280;63071;51.526;-0.134;2023-01-20T13:16:00;101452.63;;;25.13;25.85
74573;BME280;63071;51.526;-0.134;2023-01-20T13:21:15;101461.34;;;25.06;26.62
74573;BME280;63071;51.526;-0.134;2023-01-20T13:23:41;101466.69;;;25.06;25.87
74573;BME280;63071;51.526;-0.134;2023-01-20T13:26:07;101456.00;;;25.06;26.07
74573;BME280;63071;51.526;-0.134;2023-01-20T13:28:33;101459.06;;;25.08;25.84
74573;BME280;63071;51.526;-0.134;2023-01-20T13:31:01;101460.22;;;25.11;26.30
74573;BME280;63071;51.526;-0.134;2023-01-20T13:33:46;101465.59;;;25.11;26.02
74573;BME280;63071;51.526;-0.134;2023-01-20T13:36:18;101469.75;;;25.08;26.26
74573;BME280;63071;51.526;-0.134;2023-01-20T13:38:47;101467.09;;;25.08;26.24
74573;BME280;63071;51.526;-0.134;2023-01-20T13:41:45;101468.25;;;25.11;26.60
74573;BME280;63071;51.526;-0.134;2023-01-20T13:44:33;101465.22;;;25.12;26.16
74573;BME280;63071;51.526;-0.134;2023-01-20T13:47:00;101459.13;;;25.15;26.70
74573;BME280;63071;51.526;-0.134;2023-01-20T13:49:46;101466.69;;;25.10;26.11
74573;BME280;63071;51.526;-0.134;2023-01-20T13:52:12;101471.66;;;25.08;26.56
74573;BME280;63071;51.526;-0.134;2023-01-20T13:54:43;101469.72;;;25.05;27.15
74573;BME280;63071;51.526;-0.134;2023-01-20T13:59:52;101475.13;;;25.08;26.51
74573;BME280;63071;51.526;-0.134;2023-01-20T14:02:23;101468.16;;;25.04;26.40
74573;BME280;63071;51.526;-0.134;2023-01-20T14:04:49;101480.41;;;25.05;26.57
74573;BME280;63071;51.526;-0.134;2023-01-20T14:07:26;101466.22;;;25.01;27.00
74573;BME280;63071;51.526;-0.134;2023-01-20T14:09:53;101472.34;;;25.01;26.61
74573;BME280;63071;51.526;-0.134;2023-01-20T14:12:19;101486.88;;;25.04;26.33
74573;BME280;63071;51.526;-0.134;2023-01-20T14:14:44;101494.97;;;25.07;26.51
74573;BME280;63071;51.526;-0.134;2023-01-20T14:17:17;101486.53;;;25.05;26.54
74573;BME280;63071;51.526;-0.134;2023-01-20T14:19:51;101494.59;;;25.09;26.65
74573;BME280;63071;51.526;-0.134;2023-01-20T14:22:27;101499.63;;;25.14;26.84
74573;BME280;63071;51.526;-0.134;2023-01-20T14:24:55;101506.50;;;25.15;26.92
74573;BME280;63071;51.526;-0.134;2023-01-20T14:27:31;101506.50;;;25.15;26.23
74573;BME280;63071;51.526;-0.134;2023-01-20T14:30:31;101514.13;;;25.13;26.46
74573;BME280;63071;51.526;-0.134;2023-01-20T14:32:57;101524.47;;;25.14;26.48
74573;BME280;63071;51.526;-0.134;2023-01-20T14:35:31;101521.47;;;25.19;26.92
74573;BME280;63071;51.526;-0.134;2023-01-20T14:37:58;101522.16;;;25.13;26.91
74573;BME280;63071;51.526;-0.134;2023-01-20T14:40:30;101523.25;;;25.08;27.06
74573;BME280;63071;51.526;-0.134;2023-01-20T14:43:10;101528.97;;;25.07;27.53
74573;BME280;63071;51.526;-0.134;2023-01-20T14:45:41;101530.09;;;25.06;27.13
74573;BME280;63071;51.526;-0.134;2023-01-20T14:48:11;101528.19;;;25.06;26.79
74573;BME280;63071;51.526;-0.134;2023-01-20T14:50:38;101525.53;;;25.06;27.26
74573;BME280;63071;51.526;-0.134;2023-01-20T14:53:04;101532.84;;;25.13;26.76
74573;BME280;63071;51.526;-0.134;2023-01-20T14:55:33;101536.28;;;25.13;27.24
74573;BME280;63071;51.526;-0.134;2023-01-20T14:58:05;101539.72;;;25.10;26.57